Time;durP1;ratioP1;P1;durP2;ratioP2;P2;SDS_P1;SDS_P2;PMS_P1;PMS_P2;Temp;Humidity;BMP_temperature;BMP_pressure;BME280_temperature;BME280_humidity;BME280_pressure;Samples;Min_cycle;Max_cycle;Signal;HPM_P1;HPM_P2
2021/11/29 00:01:36;;;;;;;;;;;;;;;27.71;66.44;100725.06;5076041;27;70494;-35
2021/11/29 00:04:06;;;;;;;;;;;;;;;27.74;66.92;100721.13;5075037;27;66540;-34
2021/11/29 00:06:36;;;;;;;;;;;;;;;27.79;66.51;100729.44;5073535;27;69565;-35
2021/11/29 00:09:07;;;;;;;;;;;;;;;27.82;68.10;100731.75;5075533;27;67065;-35
2021/11/29 00:11:37;;;;;;;;;;;;;;;27.79;75.50;100737.53;5039174;27;70094;-36
2021/11/29 00:14:08;;;;;;;;;;;;;;;27.65;79.26;100730.44;5074387;27;66286;-34
2021/11/29 00:16:38;;;;;;;;;;;;;;;27.54;80.15;100729.16;5074644;27;70105;-34
2021/11/29 00:19:08;;;;;;;;;;;;;;;27.49;80.93;100737.00;5058374;28;66429;-36
2021/11/29 00:21:38;;;;;;;;;;;;;;;27.42;81.80;100736.16;5072805;27;70106;-35
2021/11/29 00:24:07;;;;;;;;;;;;;;;27.35;82.01;100742.31;5076171;27;66298;-35
2021/11/29 00:26:37;;;;;;;;;;;;;;;27.37;82.04;100744.81;5074411;27;70215;-35
2021/11/29 00:29:07;;;;;;;;;;;;;;;27.49;81.03;100745.91;5074316;27;66886;-36
2021/11/29 00:31:37;;;;;;;;;;;;;;;27.62;80.53;100743.28;5072382;27;70976;-35
2021/11/29 00:34:07;;;;;;;;;;;;;;;27.69;78.39;100758.63;5071764;27;65718;-35
2021/11/29 00:36:37;;;;;;;;;;;;;;;27.76;76.82;100762.19;5070544;27;69176;-34
2021/11/29 00:39:07;;;;;;;;;;;;;;;27.83;75.93;100760.38;5075797;27;66356;-34
2021/11/29 00:41:37;;;;;;;;;;;;;;;27.88;75.38;100752.50;5075639;27;70485;-34
2021/11/29 00:44:07;;;;;;;;;;;;;;;27.94;74.55;100757.06;5072379;27;66048;-34
2021/11/29 00:46:37;;;;;;;;;;;;;;;27.99;73.92;100764.56;5073614;27;69241;-35
2021/11/29 00:49:07;;;;;;;;;;;;;;;28.02;73.52;100766.84;5077351;27;66373;-35
2021/11/29 00:51:37;;;;;;;;;;;;;;;28.06;73.07;100766.25;5071122;27;69213;-35
2021/11/29 00:54:07;;;;;;;;;;;;;;;28.09;73.06;100774.97;5073870;27;66246;-35
2021/11/29 00:56:37;;;;;;;;;;;;;;;28.13;72.89;100776.22;5075508;27;69136;-35
2021/11/29 00:59:08;;;;;;;;;;;;;;;28.15;72.50;100774.16;5072617;27;66292;-35
2021/11/29 01:01:39;;;;;;;;;;;;;;;28.16;72.37;100781.19;5050563;28;69051;-34
2021/11/29 01:04:17;;;;;;;;;;;;;;;28.18;72.14;100779.13;5075103;27;66722;-35
2021/11/29 01:06:52;;;;;;;;;;;;;;;28.21;71.73;100784.13;5074298;27;69846;-36
2021/11/29 01:09:26;;;;;;;;;;;;;;;28.21;71.99;100778.72;5072909;27;66174;-35
2021/11/29 01:12:03;;;;;;;;;;;;;;;28.24;71.70;100783.72;5073964;27;70303;-36
2021/11/29 01:14:57;;;;;;;;;;;;;;;28.25;71.47;100771.88;5074815;27;65653;-35
2021/11/29 01:17:37;;;;;;;;;;;;;;;28.27;71.40;100778.72;5070629;27;70054;-35
2021/11/29 01:20:22;;;;;;;;;;;;;;;28.29;71.17;100781.22;5071788;27;66761;-35
2021/11/29 01:22:57;;;;;;;;;;;;;;;28.30;71.30;100777.47;5054128;28;69996;-35
2021/11/29 01:25:31;;;;;;;;;;;;;;;28.32;70.91;100791.59;5074812;27;67115;-35
2021/11/29 01:28:12;;;;;;;;;;;;;;;28.33;70.79;100787.88;5074134;27;70591;-35
2021/11/29 01:30:49;;;;;;;;;;;;;;;28.34;70.59;100786.84;5074204;27;65941;-35
2021/11/29 01:33:31;;;;;;;;;;;;;;;28.36;70.41;100792.88;5074936;27;68746;-35
2021/11/29 01:36:04;;;;;;;;;;;;;;;28.31;70.65;100784.56;5075142;27;65718;-35
2021/11/29 01:38:40;;;;;;;;;;;;;;;28.39;70.41;100800.56;5072542;27;69433;-36
2021/11/29 01:41:13;;;;;;;;;;;;;;;28.40;70.51;100793.28;5073964;27;65656;-35
2021/11/29 01:43:48;;;;;;;;;;;;;;;28.41;70.55;100800.34;5072773;27;69193;-35
2021/11/29 01:46:24;;;;;;;;;;;;;;;28.42;70.08;100800.16;5075096;27;67010;-35
2021/11/29 01:49:00;;;;;;;;;;;;;;;28.44;70.44;100803.47;5075085;27;70008;-35
2021/11/29 01:51:39;;;;;;;;;;;;;;;28.46;70.11;100805.97;5073973;27;65739;-35
2021/11/29 01:54:19;;;;;;;;;;;;;;;28.47;70.32;100811.19;5073188;27;70152;-35
2021/11/29 01:56:49;;;;;;;;;;;;;;;28.49;69.89;100819.06;5065011;27;66639;-35
2021/11/29 01:59:23;;;;;;;;;;;;;;;28.49;69.86;100814.47;5067417;28;69346;-35
2021/11/29 02:01:52;;;;;;;;;;;;;;;28.50;70.04;100821.56;5073077;27;65677;-35
2021/11/29 02:04:26;;;;;;;;;;;;;;;28.51;70.15;100820.50;5072290;27;70661;-35
2021/11/29 02:06:59;;;;;;;;;;;;;;;28.54;70.05;100818.44;5072646;27;66803;-35
2021/11/29 02:09:34;;;;;;;;;;;;;;;28.56;69.73;100835.28;5072286;27;68273;-35
2021/11/29 02:12:06;;;;;;;;;;;;;;;28.57;69.72;100834.22;5075565;27;64833;-35
2021/11/29 02:14:46;;;;;;;;;;;;;;;28.58;69.70;100833.19;5075635;27;70514;-35
2021/11/29 02:17:30;;;;;;;;;;;;;;;28.61;69.91;100838.16;5075030;27;65682;-35
2021/11/29 02:20:01;;;;;;;;;;;;;;;28.61;69.79;100839.03;5074220;27;70220;-36
2021/11/29 02:22:31;;;;;;;;;;;;;;;28.63;69.73;100830.69;5071894;27;65932;-35
2021/11/29 02:25:01;;;;;;;;;;;;;;;28.65;69.44;100839.44;5073786;27;70324;-35
2021/11/29 02:27:43;;;;;;;;;;;;;;;28.66;69.66;100851.88;5073709;27;66273;-35
2021/11/29 02:30:16;;;;;;;;;;;;;;;28.67;69.29;100842.75;5075452;27;70471;-35
2021/11/29 02:32:46;;;;;;;;;;;;;;;28.69;69.36;100844.19;5074559;27;66463;-34
2021/11/29 02:35:16;;;;;;;;;;;;;;;28.71;69.59;100838.59;5073583;27;70230;-35
2021/11/29 02:37:46;;;;;;;;;;;;;;;28.72;69.12;100833.00;5073643;27;66395;-36
2021/11/29 02:40:16;;;;;;;;;;;;;;;28.73;69.58;100833.84;5075134;27;69113;-35
2021/11/29 02:42:46;;;;;;;;;;;;;;;28.75;69.07;100834.44;5072736;27;65665;-39
2021/11/29 02:45:17;;;;;;;;;;;;;;;28.77;69.44;100837.75;5074658;27;70143;-35
2021/11/29 02:47:47;;;;;;;;;;;;;;;28.78;69.31;100839.44;5073616;27;66819;-35
2021/11/29 02:50:17;;;;;;;;;;;;;;;28.80;69.32;100831.94;5071283;27;69338;-34
2021/11/29 02:52:49;;;;;;;;;;;;;;;28.82;69.00;100829.06;5075035;27;65691;-35
2021/11/29 02:55:21;;;;;;;;;;;;;;;28.84;68.98;100826.97;5071732;27;69329;-35
2021/11/29 02:57:51;;;;;;;;;;;;;;;28.87;69.05;100838.19;5073922;27;66613;-34
2021/11/29 03:00:21;;;;;;;;;;;;;;;28.88;68.64;100831.75;5075741;27;70386;-34
2021/11/29 03:03:08;;;;;;;;;;;;;;;28.91;69.00;100827.78;5078180;27;66032;-35
2021/11/29 03:05:38;;;;;;;;;;;;;;;28.93;68.89;100825.72;5078287;27;70289;-34
2021/11/29 03:08:08;;;;;;;;;;;;;;;28.94;68.47;100817.41;5077873;27;66287;-35
2021/11/29 03:10:41;;;;;;;;;;;;;;;28.93;68.45;100821.16;5076396;27;69858;-35
2021/11/29 03:13:11;;;;;;;;;;;;;;;29.00;68.32;100809.50;5076562;27;65622;-35
2021/11/29 03:15:41;;;;;;;;;;;;;;;29.01;68.29;100817.41;5078478;27;70200;-35
2021/11/29 03:18:11;;;;;;;;;;;;;;;29.04;68.31;100810.78;5075641;27;66900;-35
2021/11/29 03:20:42;;;;;;;;;;;;;;;29.06;68.20;100806.84;5077775;27;69898;-36
2021/11/29 03:23:12;;;;;;;;;;;;;;;29.08;68.25;100807.44;5076065;27;66345;-35
2021/11/29 03:25:42;;;;;;;;;;;;;;;29.11;68.08;100800.78;5075217;27;70542;-34
2021/11/29 03:28:13;;;;;;;;;;;;;;;29.13;68.49;100801.44;5075936;27;65529;-34
2021/11/29 03:30:43;;;;;;;;;;;;;;;29.15;68.00;100799.34;5074773;27;71347;-33
2021/11/29 03:33:14;;;;;;;;;;;;;;;29.17;68.41;100802.69;5074546;27;66779;-35
2021/11/29 03:35:44;;;;;;;;;;;;;;;29.20;67.89;100796.00;5075040;27;70082;-35
2021/11/29 03:38:14;;;;;;;;;;;;;;;29.23;67.79;100798.31;5077142;27;65852;-35
2021/11/29 03:40:44;;;;;;;;;;;;;;;29.20;68.32;100788.75;5077152;27;70326;-35
2021/11/29 03:43:14;;;;;;;;;;;;;;;29.27;68.26;100786.84;5077981;27;66144;-35
2021/11/29 03:45:44;;;;;;;;;;;;;;;29.29;68.15;100792.88;5076364;27;69753;-35
2021/11/29 03:48:14;;;;;;;;;;;;;;;29.32;67.62;100780.81;5055435;28;66165;-35
2021/11/29 03:50:45;;;;;;;;;;;;;;;29.35;68.01;100780.38;5072547;27;70159;-35
2021/11/29 03:53:15;;;;;;;;;;;;;;;29.37;67.63;100770.22;5074956;27;65138;-35
2021/11/29 03:55:46;;;;;;;;;;;;;;;29.39;67.87;100771.66;5063961;27;70416;-35
2021/11/29 03:58:16;;;;;;;;;;;;;;;29.43;67.32;100771.22;5074948;27;65437;-36
2021/11/29 04:00:46;;;;;;;;;;;;;;;29.44;67.59;100762.88;5072376;27;70295;-35
2021/11/29 04:03:17;;;;;;;;;;;;;;;29.47;67.21;100758.94;5058709;27;67094;-35
2021/11/29 04:05:47;;;;;;;;;;;;;;;29.46;67.50;100751.88;5075521;27;69998;-34
2021/11/29 04:08:17;;;;;;;;;;;;;;;29.50;67.54;100748.50;5075819;27;65855;-35
2021/11/29 04:10:47;;;;;;;;;;;;;;;29.54;67.13;100746.25;5076282;27;70364;-35
2021/11/29 04:13:17;;;;;;;;;;;;;;;29.55;66.99;100734.38;5076488;27;65443;-37
2021/11/29 04:15:48;;;;;;;;;;;;;;;29.58;67.27;100733.94;5058429;28;70281;-34
2021/11/29 04:18:18;;;;;;;;;;;;;;;29.61;67.22;100725.41;5076395;27;67192;-35
2021/11/29 04:20:49;;;;;;;;;;;;;;;29.61;66.74;100715.44;5076964;27;70899;-35
2021/11/29 04:23:19;;;;;;;;;;;;;;;29.65;66.77;100710.44;5075515;27;66935;-34
2021/11/29 04:26:00;;;;;;;;;;;;;;;29.66;66.90;100701.28;5075567;27;69791;-34
2021/11/29 04:28:31;;;;;;;;;;;;;;;29.69;66.58;100694.63;5077687;27;65630;-35
2021/11/29 04:31:01;;;;;;;;;;;;;;;29.66;66.47;100687.78;5087400;27;70406;-35
2021/11/29 04:33:31;;;;;;;;;;;;;;;29.72;66.98;100684.19;5077255;27;66678;-35
2021/11/29 04:36:01;;;;;;;;;;;;;;;29.66;66.44;100666.16;5062123;27;69292;-34
2021/11/29 04:38:32;;;;;;;;;;;;;;;29.75;66.46;100681.06;5074638;27;66243;-35
2021/11/29 04:41:02;;;;;;;;;;;;;;;29.70;66.31;100659.28;5081573;27;70706;-35
2021/11/29 04:43:32;;;;;;;;;;;;;;;29.78;66.66;100667.13;5084335;27;66839;-35
2021/11/29 04:46:02;;;;;;;;;;;;;;;29.80;66.84;100665.00;5073661;27;71526;-34
2021/11/29 04:48:33;;;;;;;;;;;;;;;29.82;66.26;100662.09;5076572;27;65628;-34
2021/11/29 04:51:03;;;;;;;;;;;;;;;29.79;66.51;100651.72;5076193;27;70830;-34
2021/11/29 04:53:33;;;;;;;;;;;;;;;29.85;66.23;100656.25;5075719;27;67153;-34
2021/11/29 04:56:03;;;;;;;;;;;;;;;29.85;66.61;100648.13;5074727;27;69223;-35
2021/11/29 04:58:35;;;;;;;;;;;;;;;29.88;66.08;100644.19;5074633;27;66719;-34
2021/11/29 05:01:05;;;;;;;;;;;;;;;29.82;66.54;100635.88;5076723;27;69254;-35
2021/11/29 05:03:35;;;;;;;;;;;;;;;29.89;65.90;100637.72;5075462;27;66709;-36
2021/11/29 05:06:05;;;;;;;;;;;;;;;29.79;66.43;100614.69;5075077;27;68870;-35
2021/11/29 05:08:36;;;;;;;;;;;;;;;29.91;65.89;100632.91;5074011;27;65726;-37
2021/11/29 05:11:06;;;;;;;;;;;;;;;29.92;65.97;100624.59;5074841;27;70192;-36
2021/11/29 05:13:36;;;;;;;;;;;;;;;29.93;65.72;100630.81;5073952;27;66943;-36
2021/11/29 05:16:06;;;;;;;;;;;;;;;29.88;66.00;100617.94;5074907;27;70118;-35
2021/11/29 05:18:37;;;;;;;;;;;;;;;29.95;66.24;100624.16;5059460;27;65703;-35
2021/11/29 05:21:07;;;;;;;;;;;;;;;29.96;66.19;100625.81;5054492;28;69797;-35
2021/11/29 05:23:37;;;;;;;;;;;;;;;29.98;65.67;100617.47;5075443;27;65777;-35
2021/11/29 05:26:07;;;;;;;;;;;;;;;29.98;66.00;100610.19;5074903;27;69698;-35
2021/11/29 05:28:38;;;;;;;;;;;;;;;29.99;65.83;100613.72;5072824;27;66451;-35
2021/11/29 05:31:08;;;;;;;;;;;;;;;30.01;65.47;100598.09;5076580;27;69008;-36
2021/11/29 05:33:38;;;;;;;;;;;;;;;30.02;65.42;100597.03;5073682;27;65313;-35
2021/11/29 05:36:08;;;;;;;;;;;;;;;30.02;65.45;100594.34;5073641;27;70063;-36
2021/11/29 05:38:38;;;;;;;;;;;;;;;30.03;65.26;100593.28;5074903;27;66243;-35
2021/11/29 05:41:08;;;;;;;;;;;;;;;30.04;65.43;100600.34;5075912;27;70088;-35
2021/11/29 05:43:39;;;;;;;;;;;;;;;30.04;65.35;100593.06;5071468;27;65930;-35
2021/11/29 05:46:09;;;;;;;;;;;;;;;30.06;65.23;100590.13;5075836;27;69450;-34
2021/11/29 05:48:40;;;;;;;;;;;;;;;30.07;65.16;100586.38;5073021;27;65297;-34
2021/11/29 05:51:09;;;;;;;;;;;;;;;30.07;65.51;100578.28;5061824;27;70035;-35
2021/11/29 05:53:39;;;;;;;;;;;;;;;30.08;65.56;100579.91;5074723;27;66114;-35
2021/11/29 05:56:09;;;;;;;;;;;;;;;30.09;65.28;100573.47;5057796;27;69700;-36
2021/11/29 05:58:39;;;;;;;;;;;;;;;30.11;64.90;100584.06;5073575;27;66629;-33
2021/11/29 06:01:09;;;;;;;;;;;;;;;30.03;65.22;100567.09;5074153;27;69659;-35
2021/11/29 06:03:40;;;;;;;;;;;;;;;30.11;64.94;100560.53;5076278;27;66538;-35
2021/11/29 06:06:10;;;;;;;;;;;;;;;30.13;65.05;100561.16;5073938;27;70792;-36
2021/11/29 06:08:41;;;;;;;;;;;;;;;30.13;65.07;100566.56;5076053;27;66551;-35
2021/11/29 06:11:11;;;;;;;;;;;;;;;30.14;64.81;100562.78;5074065;27;70422;-34
2021/11/29 06:13:41;;;;;;;;;;;;;;;30.14;65.40;100560.09;5072485;27;65529;-35
2021/11/29 06:16:12;;;;;;;;;;;;;;;30.14;64.66;100551.97;5073454;27;70059;-35
2021/11/29 06:18:43;;;;;;;;;;;;;;;30.16;64.67;100562.59;5074149;27;66354;-35
2021/11/29 06:21:13;;;;;;;;;;;;;;;30.17;64.82;100556.97;5072416;27;70243;-35
2021/11/29 06:23:42;;;;;;;;;;;;;;;30.17;64.72;100556.97;5074186;27;66604;-35
2021/11/29 06:26:12;;;;;;;;;;;;;;;30.20;64.82;100558.38;5072597;27;70535;-35
2021/11/29 06:28:43;;;;;;;;;;;;;;;30.19;65.26;100549.44;5072604;27;65606;-34
2021/11/29 06:31:13;;;;;;;;;;;;;;;30.20;65.06;100553.81;5075053;27;69758;-35
2021/11/29 06:33:43;;;;;;;;;;;;;;;30.22;65.07;100548.19;5078855;27;66216;-35
2021/11/29 06:36:13;;;;;;;;;;;;;;;30.22;64.57;100549.00;5076161;27;69668;-35
2021/11/29 06:38:52;;;;;;;;;;;;;;;30.23;64.60;100545.28;5078933;27;65601;-34
2021/11/29 06:41:23;;;;;;;;;;;;;;;30.24;64.67;100546.91;5075547;27;70631;-35
2021/11/29 06:43:55;;;;;;;;;;;;;;;30.24;64.82;100544.22;5077595;27;66308;-34
2021/11/29 06:46:25;;;;;;;;;;;;;;;30.25;64.58;100534.22;5076995;27;70229;-34
2021/11/29 06:48:55;;;;;;;;;;;;;;;30.26;64.53;100530.47;5077007;27;65619;-35
2021/11/29 06:51:26;;;;;;;;;;;;;;;30.26;64.84;100534.00;5077341;27;69980;-36
2021/11/29 06:53:56;;;;;;;;;;;;;;;30.27;65.01;100540.22;5078949;27;66509;-35
2021/11/29 06:56:26;;;;;;;;;;;;;;;30.28;64.53;100526.50;5074129;27;70030;-34
2021/11/29 06:58:57;;;;;;;;;;;;;;;30.30;64.79;100530.84;5079229;27;66082;-35
2021/11/29 07:01:27;;;;;;;;;;;;;;;30.30;64.88;100534.38;5076982;27;69029;-35
2021/11/29 07:03:59;;;;;;;;;;;;;;;30.31;64.91;100532.47;5076696;27;66287;-35
2021/11/29 07:06:29;;;;;;;;;;;;;;;30.34;64.23;100529.31;5076849;27;69856;-36
2021/11/29 07:08:58;;;;;;;;;;;;;;;30.34;64.73;100524.75;5078378;27;65587;-34
2021/11/29 07:11:28;;;;;;;;;;;;;;;30.36;64.37;100529.94;5073584;27;69668;-35
2021/11/29 07:13:58;;;;;;;;;;;;;;;30.37;64.82;100523.47;5077319;27;66476;-34
2021/11/29 07:16:28;;;;;;;;;;;;;;;30.38;64.23;100520.53;5076933;27;69434;-35
2021/11/29 07:18:58;;;;;;;;;;;;;;;30.40;64.81;100518.44;5076857;27;65826;-35
2021/11/29 07:21:28;;;;;;;;;;;;;;;30.42;64.52;100518.19;5076261;27;69928;-34
2021/11/29 07:23:58;;;;;;;;;;;;;;;30.42;64.28;100515.50;5078682;27;65784;-35
2021/11/29 07:26:28;;;;;;;;;;;;;;;30.43;64.42;100509.06;5076184;27;69859;-36
2021/11/29 07:28:58;;;;;;;;;;;;;;;30.44;64.81;100516.09;5090615;27;66352;-36
2021/11/29 07:31:28;;;;;;;;;;;;;;;30.46;64.68;100522.13;5075581;27;69775;-35
2021/11/29 07:33:58;;;;;;;;;;;;;;;30.45;64.56;100528.56;5076627;27;66723;-36
2021/11/29 07:36:28;;;;;;;;;;;;;;;30.47;64.72;100529.19;5076364;27;70126;-35
2021/11/29 07:39:10;;;;;;;;;;;;;;;30.48;64.72;100520.03;5064080;27;66602;-37
2021/11/29 07:41:58;;;;;;;;;;;;;;;30.48;64.50;100506.50;5074605;27;70125;-35
2021/11/29 07:44:48;;;;;;;;;;;;;;;30.49;64.79;100506.25;5076132;27;66537;-36
2021/11/29 07:47:18;;;;;;;;;;;;;;;30.49;64.63;100500.84;5077741;27;70218;-35
2021/11/29 07:49:48;;;;;;;;;;;;;;;30.51;64.87;100508.75;5075008;27;66405;-35
2021/11/29 07:52:21;;;;;;;;;;;;;;;30.53;64.47;100501.22;5077616;27;69394;-36
2021/11/29 07:54:56;;;;;;;;;;;;;;;30.54;64.43;100497.47;5064578;27;66342;-36
2021/11/29 07:57:27;;;;;;;;;;;;;;;30.55;64.88;100504.53;5075678;27;69900;-36
2021/11/29 07:59:57;;;;;;;;;;;;;;;30.56;64.35;100508.88;5079110;27;66715;-36
2021/11/29 08:02:31;;;;;;;;;;;;;;;30.57;64.53;100513.25;5076022;27;69579;-37
2021/11/29 08:05:02;;;;;;;;;;;;;;;30.58;64.91;100509.47;5075114;27;65718;-35
2021/11/29 08:07:38;;;;;;;;;;;;;;;30.59;64.78;100505.75;5076738;27;69437;-36
2021/11/29 08:10:09;;;;;;;;;;;;;;;30.59;64.38;100500.31;5075831;27;67396;-35
2021/11/29 08:12:39;;;;;;;;;;;;;;;30.59;64.89;100503.03;5077002;27;70448;-36
2021/11/29 08:18:15;;;;;;;;;;;;;;;30.60;64.75;100499.25;5075151;27;70056;-35
2021/11/29 08:20:49;;;;;;;;;;;;;;;30.58;64.52;100493.22;5075279;27;66754;-35
2021/11/29 08:23:19;;;;;;;;;;;;;;;30.61;64.87;100498.19;5077003;27;70289;-36
2021/11/29 08:25:49;;;;;;;;;;;;;;;30.47;65.12;100475.06;5076847;27;66348;-37
2021/11/29 08:28:22;;;;;;;;;;;;;;;30.62;64.80;100499.00;5075728;27;70441;-36
2021/11/29 08:30:53;;;;;;;;;;;;;;;30.60;64.77;100501.97;5077195;27;66297;-36
2021/11/29 08:33:23;;;;;;;;;;;;;;;30.61;65.23;100509.03;5075879;27;69195;-35
2021/11/29 08:35:53;;;;;;;;;;;;;;;30.61;65.23;100497.38;5075071;27;67045;-35
2021/11/29 08:38:23;;;;;;;;;;;;;;;30.61;64.68;100500.06;5075079;27;70095;-35
2021/11/29 08:40:54;;;;;;;;;;;;;;;30.60;64.82;100501.97;5077135;27;66085;-35
2021/11/29 08:43:24;;;;;;;;;;;;;;;30.60;65.30;100501.97;5073303;27;69896;-35
2021/11/29 08:45:54;;;;;;;;;;;;;;;30.60;64.75;100501.97;5071132;27;66599;-35
2021/11/29 08:48:25;;;;;;;;;;;;;;;30.61;65.30;100509.03;5074175;27;70240;-35
2021/11/29 08:50:55;;;;;;;;;;;;;;;30.60;65.18;100507.38;5074164;27;65267;-35
2021/11/29 08:53:26;;;;;;;;;;;;;;;30.60;64.81;100512.78;5074912;27;69153;-35
2021/11/29 08:55:56;;;;;;;;;;;;;;;30.60;65.42;100507.38;5076150;27;66160;-35
2021/11/29 08:58:26;;;;;;;;;;;;;;;30.59;64.80;100511.16;5073349;27;70151;-34
2021/11/29 09:00:56;;;;;;;;;;;;;;;30.60;65.24;100509.25;5077176;27;66661;-35
2021/11/29 09:03:26;;;;;;;;;;;;;;;30.59;65.44;100503.03;5075029;27;69889;-35
2021/11/29 09:05:57;;;;;;;;;;;;;;;30.59;65.54;100500.31;5074228;27;66441;-36
2021/11/29 09:08:27;;;;;;;;;;;;;;;30.59;64.86;100513.84;5073573;27;69108;-38
2021/11/29 09:10:58;;;;;;;;;;;;;;;30.58;64.93;100514.88;5076416;27;66396;-35
2021/11/29 09:13:44;;;;;;;;;;;;;;;30.58;64.86;100517.59;5074907;27;69979;-35
2021/11/29 09:16:15;;;;;;;;;;;;;;;30.59;65.19;100518.41;5072749;27;66387;-35
2021/11/29 09:18:46;;;;;;;;;;;;;;;30.59;65.51;100511.16;5073036;27;69812;-34
2021/11/29 09:21:17;;;;;;;;;;;;;;;30.58;65.58;100514.88;5076208;27;66388;-36
2021/11/29 09:23:47;;;;;;;;;;;;;;;30.57;65.15;100513.25;5074500;27;69663;-36
2021/11/29 09:26:17;;;;;;;;;;;;;;;30.58;64.96;100522.19;5074003;27;65435;-35
2021/11/29 09:28:47;;;;;;;;;;;;;;;30.57;65.06;100532.19;5074354;27;69317;-34
2021/11/29 09:31:19;;;;;;;;;;;;;;;30.58;65.56;100539.25;5075897;27;66618;-35
2021/11/29 09:33:48;;;;;;;;;;;;;;;30.58;65.08;100536.53;5073956;27;70411;-34
2021/11/29 09:36:18;;;;;;;;;;;;;;;30.57;65.34;100540.31;5075896;28;66447;-34
2021/11/29 09:38:48;;;;;;;;;;;;;;;30.57;65.40;100540.31;5074452;27;69491;-34
2021/11/29 09:41:21;;;;;;;;;;;;;;;30.57;65.63;100542.19;5074700;27;66860;-35
2021/11/29 09:43:51;;;;;;;;;;;;;;;30.57;65.35;100544.91;5074602;27;69130;-35
2021/11/29 09:46:22;;;;;;;;;;;;;;;30.57;65.23;100553.03;5075412;27;66612;-35
2021/11/29 09:48:52;;;;;;;;;;;;;;;30.55;65.01;100550.53;5074379;27;70181;-35
2021/11/29 09:51:33;;;;;;;;;;;;;;;30.55;65.47;100553.25;5076151;27;65599;-35
2021/11/29 09:54:10;;;;;;;;;;;;;;;30.55;65.12;100558.66;5072507;27;70346;-35
2021/11/29 09:56:40;;;;;;;;;;;;;;;30.55;65.54;100560.53;5073900;27;66524;-34
2021/11/29 09:59:10;;;;;;;;;;;;;;;30.53;65.61;100566.16;5074613;27;70299;-35
2021/11/29 10:01:40;;;;;;;;;;;;;;;30.54;64.89;100567.03;5072896;28;65717;-34
2021/11/29 10:04:12;;;;;;;;;;;;;;;30.52;65.07;100567.22;5074648;27;69274;-35
2021/11/29 10:06:44;;;;;;;;;;;;;;;30.52;65.36;100564.53;5073728;27;66507;-35
2021/11/29 10:09:47;;;;;;;;;;;;;;;30.50;65.14;100570.16;5075178;27;70126;-35
2021/11/29 10:12:20;;;;;;;;;;;;;;;30.50;64.98;100577.44;5063089;28;66813;-35
2021/11/29 10:15:10;;;;;;;;;;;;;;;30.49;65.05;100587.44;5077462;27;70627;-34
2021/11/29 10:17:40;;;;;;;;;;;;;;;30.48;65.68;100582.28;5075253;27;66804;-35
2021/11/29 10:20:31;;;;;;;;;;;;;;;30.47;65.40;100583.31;5063238;27;69012;-36
2021/11/29 10:23:03;;;;;;;;;;;;;;;30.46;65.39;100589.78;5073512;27;66461;-34
2021/11/29 10:25:41;;;;;;;;;;;;;;;30.36;66.38;100575.94;5076747;27;70021;-36
2021/11/29 10:28:40;;;;;;;;;;;;;;;30.37;70.38;100589.25;5073191;27;66135;-35
2021/11/29 10:31:26;;;;;;;;;;;;;;;30.30;69.87;100601.19;5073406;27;70336;-34
2021/11/29 10:34:00;;;;;;;;;;;;;;;30.17;70.32;100611.06;5075931;27;66990;-36
2021/11/29 10:36:32;;;;;;;;;;;;;;;30.05;71.30;100604.72;5080766;27;70496;-36
2021/11/29 10:39:05;;;;;;;;;;;;;;;29.90;72.28;100605.06;5070225;27;65834;-35
2021/11/29 10:41:43;;;;;;;;;;;;;;;29.79;72.81;100617.41;5075923;27;70073;-35
2021/11/29 10:44:16;;;;;;;;;;;;;;;29.79;73.28;100614.69;5075257;27;65276;-36
2021/11/29 10:46:48;;;;;;;;;;;;;;;29.80;73.06;100619.03;5078445;27;69914;-35
2021/11/29 10:49:19;;;;;;;;;;;;;;;29.75;74.23;100628.84;5070727;27;66127;-35
2021/11/29 10:51:50;;;;;;;;;;;;;;;29.75;73.92;100635.09;5070754;27;70308;-35
2021/11/29 10:54:24;;;;;;;;;;;;;;;29.76;74.41;100630.53;5073168;27;66628;-34
2021/11/29 10:56:58;;;;;;;;;;;;;;;29.77;74.01;100643.81;5074335;27;70224;-35
2021/11/29 10:59:30;;;;;;;;;;;;;;;29.77;74.38;100654.63;5072845;27;66172;-35
2021/11/29 11:02:01;;;;;;;;;;;;;;;29.77;74.34;100653.81;5071935;27;69219;-35
2021/11/29 11:04:33;;;;;;;;;;;;;;;29.77;74.34;100649.22;5071264;27;66834;-35
2021/11/29 11:07:04;;;;;;;;;;;;;;;29.78;74.07;100661.72;5086427;27;70031;-36
2021/11/29 11:09:36;;;;;;;;;;;;;;;29.77;74.58;100660.03;5076337;27;67145;-35
2021/11/29 11:12:06;;;;;;;;;;;;;;;29.78;74.69;100663.56;5074630;27;70294;-35
2021/11/29 11:14:37;;;;;;;;;;;;;;;29.78;74.71;100667.13;5076780;27;66541;-35
2021/11/29 11:17:28;;;;;;;;;;;;;;;29.77;74.81;100670.84;5071757;27;70551;-34
2021/11/29 11:20:00;;;;;;;;;;;;;;;29.76;74.38;100682.72;5072229;27;65637;-37
2021/11/29 11:22:29;;;;;;;;;;;;;;;29.76;74.54;100677.31;5072169;27;70296;-35
2021/11/29 11:25:04;;;;;;;;;;;;;;;29.75;74.85;100683.75;5071895;27;66758;-35
2021/11/29 11:27:52;;;;;;;;;;;;;;;29.77;75.01;100687.06;5071681;27;70652;-35
2021/11/29 11:30:22;;;;;;;;;;;;;;;29.77;75.21;100699.78;5069476;27;66030;-34
2021/11/29 11:32:57;;;;;;;;;;;;;;;29.75;74.79;100710.78;5072232;27;69492;-34
2021/11/29 11:35:29;;;;;;;;;;;;;;;29.75;75.11;100704.56;5055011;27;66813;-35
2021/11/29 11:38:04;;;;;;;;;;;;;;;29.74;74.67;100714.56;5069472;27;70421;-34
2021/11/29 11:40:35;;;;;;;;;;;;;;;29.71;74.87;100704.16;5072312;27;65881;-36
2021/11/29 11:43:08;;;;;;;;;;;;;;;29.75;74.79;100718.06;5073898;27;70673;-36
2021/11/29 11:45:40;;;;;;;;;;;;;;;29.76;74.38;100717.88;5071542;27;66355;-35
2021/11/29 11:48:13;;;;;;;;;;;;;;;29.76;73.71;100728.69;5073101;27;70344;-36
2021/11/29 11:50:44;;;;;;;;;;;;;;;29.72;73.54;100732.03;5075787;27;65189;-36
2021/11/29 11:53:16;;;;;;;;;;;;;;;29.70;73.09;100740.38;5059088;28;70168;-37
2021/11/29 11:55:47;;;;;;;;;;;;;;;29.65;73.58;100748.28;5053370;27;67259;-37
2021/11/29 11:58:38;;;;;;;;;;;;;;;29.59;73.52;100749.13;5074256;28;69652;-37
2021/11/29 12:01:11;;;;;;;;;;;;;;;29.58;73.78;100758.25;5076815;27;66532;-37
2021/11/29 12:03:46;;;;;;;;;;;;;;;29.55;74.07;100758.69;5074790;27;70506;-36
2021/11/29 12:06:26;;;;;;;;;;;;;;;29.48;74.35;100764.13;5075035;27;66614;-36
2021/11/29 12:09:31;;;;;;;;;;;;;;;29.51;74.79;100762.88;5048928;27;70368;-36
2021/11/29 12:12:06;;;;;;;;;;;;;;;29.52;74.26;100751.03;5074830;27;65127;-36
2021/11/29 12:14:35;;;;;;;;;;;;;;;29.61;74.04;100763.25;5075092;27;70335;-35
2021/11/29 12:17:11;;;;;;;;;;;;;;;29.60;74.01;100762.41;5075710;27;66275;-36
2021/11/29 12:19:43;;;;;;;;;;;;;;;29.57;74.01;100772.84;5074493;27;70319;-36
2021/11/29 12:22:15;;;;;;;;;;;;;;;29.58;74.03;100779.88;5076823;27;65483;-38
2021/11/29 12:24:48;;;;;;;;;;;;;;;29.52;74.43;100780.75;5073174;27;69148;-35
2021/11/29 12:27:18;;;;;;;;;;;;;;;29.51;74.66;100779.09;5076471;27;66596;-35
2021/11/29 12:29:55;;;;;;;;;;;;;;;29.50;74.63;100783.66;5075627;27;70136;-36
2021/11/29 12:32:26;;;;;;;;;;;;;;;29.47;74.88;100778.69;5072984;27;66976;-36
2021/11/29 12:34:59;;;;;;;;;;;;;;;29.47;74.34;100788.66;5074391;27;69503;-35
2021/11/29 12:37:40;;;;;;;;;;;;;;;29.46;75.17;100798.66;5074356;27;66885;-36
2021/11/29 12:40:12;;;;;;;;;;;;;;;29.46;75.42;100800.53;5055969;27;70773;-33
2021/11/29 12:42:42;;;;;;;;;;;;;;;29.32;72.34;100800.56;5074185;27;65379;-35
2021/11/29 12:45:15;;;;;;;;;;;;;;;29.09;69.74;100797.50;5071455;27;69729;-35
2021/11/29 12:47:47;;;;;;;;;;;;;;;28.88;67.77;100801.22;5073817;27;65566;-35
2021/11/29 12:50:36;;;;;;;;;;;;;;;28.67;65.54;100818.47;5071855;27;69600;-36
2021/11/29 12:53:09;;;;;;;;;;;;;;;28.27;64.52;100777.91;5069898;27;66025;-35
2021/11/29 12:55:40;;;;;;;;;;;;;;;28.32;62.71;100818.59;5070936;27;69377;-35
2021/11/29 12:58:10;;;;;;;;;;;;;;;28.27;62.12;100826.44;5067252;27;66842;-34
2021/11/29 13:00:43;;;;;;;;;;;;;;;28.12;61.02;100818.53;5076377;27;70606;-34
2021/11/29 13:03:53;;;;;;;;;;;;;;;28.03;60.18;100842.16;5070215;27;66240;-34
2021/11/29 13:06:28;;;;;;;;;;;;;;;27.92;59.37;100840.03;5053246;27;69796;-35